sensor_id;sensor_type;location;lat;lon;timestamp;temperature;humidity
60242;SHT30;46103;52.076;113.488;2023-06-01T00:02:43;15.99;45.47
60242;SHT30;46103;52.076;113.488;2023-06-01T00:05:49;16.13;45.58
60242;SHT30;46103;52.076;113.488;2023-06-01T00:08:59;16.05;45.83
60242;SHT30;46103;52.076;113.488;2023-06-01T00:12:17;15.99;46.22
60242;SHT30;46103;52.076;113.488;2023-06-01T00:15:23;16.20;46.08
60242;SHT30;46103;52.076;113.488;2023-06-01T00:18:43;16.50;45.61
60242;SHT30;46103;52.076;113.488;2023-06-01T00:22:03;16.63;45.59
60242;SHT30;46103;52.076;113.488;2023-06-01T00:25:09;16.70;45.63
60242;SHT30;46103;52.076;113.488;2023-06-01T00:28:12;16.53;46.06
60242;SHT30;46103;52.076;113.488;2023-06-01T00:31:30;16.66;45.77
60242;SHT30;46103;52.076;113.488;2023-06-01T00:34:36;16.81;45.59
60242;SHT30;46103;52.076;113.488;2023-06-01T00:37:45;17.05;45.16
60242;SHT30;46103;52.076;113.488;2023-06-01T00:40:53;17.31;44.69
60242;SHT30;46103;52.076;113.488;2023-06-01T00:44:02;17.36;44.34
60242;SHT30;46103;52.076;113.488;2023-06-01T00:47:07;17.47;43.91
60242;SHT30;46103;52.076;113.488;2023-06-01T00:50:11;17.63;43.63
60242;SHT30;46103;52.076;113.488;2023-06-01T00:53:19;17.86;43.21
60242;SHT30;46103;52.076;113.488;2023-06-01T00:56:23;18.00;42.07
60242;SHT30;46103;52.076;113.488;2023-06-01T00:59:27;18.31;41.21
60242;SHT30;46103;52.076;113.488;2023-06-01T01:02:30;18.70;40.09
60242;SHT30;46103;52.076;113.488;2023-06-01T01:05:41;18.90;39.74
60242;SHT30;46103;52.076;113.488;2023-06-01T01:09:22;19.15;38.33
60242;SHT30;46103;52.076;113.488;2023-06-01T01:20:03;18.96;38.17
60242;SHT30;46103;52.076;113.488;2023-06-01T01:23:38;19.01;37.97
60242;SHT30;46103;52.076;113.488;2023-06-01T01:27:39;19.08;37.53
60242;SHT30;46103;52.076;113.488;2023-06-01T01:30:42;19.11;37.37
60242;SHT30;46103;52.076;113.488;2023-06-01T01:33:50;19.18;37.05
60242;SHT30;46103;52.076;113.488;2023-06-01T01:37:13;19.34;37.23
60242;SHT30;46103;52.076;113.488;2023-06-01T01:40:38;19.15;37.64
60242;SHT30;46103;52.076;113.488;2023-06-01T01:43:48;19.28;37.49
60242;SHT30;46103;52.076;113.488;2023-06-01T01:47:51;19.24;37.86
60242;SHT30;46103;52.076;113.488;2023-06-01T01:51:22;19.17;38.14
60242;SHT30;46103;52.076;113.488;2023-06-01T01:54:45;19.49;37.88
60242;SHT30;46103;52.076;113.488;2023-06-01T01:58:31;19.73;36.83
60242;SHT30;46103;52.076;113.488;2023-06-01T02:02:00;19.56;36.62
60242;SHT30;46103;52.076;113.488;2023-06-01T02:05:25;19.59;36.80
60242;SHT30;46103;52.076;113.488;2023-06-01T02:08:52;20.11;35.58
60242;SHT30;46103;52.076;113.488;2023-06-01T02:11:58;20.35;35.26
60242;SHT30;46103;52.076;113.488;2023-06-01T02:15:08;20.32;35.10
60242;SHT30;46103;52.076;113.488;2023-06-01T02:18:51;19.97;35.05
60242;SHT30;46103;52.076;113.488;2023-06-01T02:23:03;19.66;35.58
60242;SHT30;46103;52.076;113.488;2023-06-01T02:27:19;19.76;35.95
60242;SHT30;46103;52.076;113.488;2023-06-01T02:31:07;20.18;34.89
60242;SHT30;46103;52.076;113.488;2023-06-01T02:34:55;20.03;35.27
60242;SHT30;46103;52.076;113.488;2023-06-01T02:38:19;20.25;34.77
60242;SHT30;46103;52.076;113.488;2023-06-01T02:41:40;20.17;34.52
60242;SHT30;46103;52.076;113.488;2023-06-01T02:45:10;20.30;34.58
60242;SHT30;46103;52.076;113.488;2023-06-01T02:48:33;20.34;33.93
60242;SHT30;46103;52.076;113.488;2023-06-01T02:51:38;20.44;34.04
60242;SHT30;46103;52.076;113.488;2023-06-01T02:54:50;20.53;34.03
60242;SHT30;46103;52.076;113.488;2023-06-01T02:58:35;20.41;33.83
60242;SHT30;46103;52.076;113.488;2023-06-01T03:01:58;20.52;33.97
60242;SHT30;46103;52.076;113.488;2023-06-01T03:05:26;20.53;33.30
60242;SHT30;46103;52.076;113.488;2023-06-01T03:09:46;20.72;33.36
60242;SHT30;46103;52.076;113.488;2023-06-01T03:13:51;21.07;33.00
60242;SHT30;46103;52.076;113.488;2023-06-01T03:17:35;21.41;32.01
60242;SHT30;46103;52.076;113.488;2023-06-01T03:21:27;21.04;31.94
60242;SHT30;46103;52.076;113.488;2023-06-01T03:24:45;20.85;32.15
60242;SHT30;46103;52.076;113.488;2023-06-01T03:28:00;20.96;32.09
60242;SHT30;46103;52.076;113.488;2023-06-01T03:31:07;21.10;32.02
60242;SHT30;46103;52.076;113.488;2023-06-01T03:34:53;21.26;31.96
60242;SHT30;46103;52.076;113.488;2023-06-01T03:38:57;20.83;32.39
60242;SHT30;46103;52.076;113.488;2023-06-01T03:43:24;20.48;32.61
60242;SHT30;46103;52.076;113.488;2023-06-01T03:47:07;20.27;32.96
60242;SHT30;46103;52.076;113.488;2023-06-01T03:51:30;20.44;32.42
60242;SHT30;46103;52.076;113.488;2023-06-01T03:55:32;21.06;31.66
60242;SHT30;46103;52.076;113.488;2023-06-01T03:59:39;20.86;31.50
60242;SHT30;46103;52.076;113.488;2023-06-01T04:03:07;20.86;31.66
60242;SHT30;46103;52.076;113.488;2023-06-01T04:06:32;20.41;31.75
60242;SHT30;46103;52.076;113.488;2023-06-01T04:10:11;20.27;31.75
60242;SHT30;46103;52.076;113.488;2023-06-01T04:13:32;19.90;32.73
60242;SHT30;46103;52.076;113.488;2023-06-01T04:16:36;19.87;32.46
60242;SHT30;46103;52.076;113.488;2023-06-01T04:19:41;19.55;33.07
60242;SHT30;46103;52.076;113.488;2023-06-01T04:22:48;19.42;33.08
60242;SHT30;46103;52.076;113.488;2023-06-01T04:25:52;19.59;32.80
60242;SHT30;46103;52.076;113.488;2023-06-01T04:29:09;19.73;32.58
60242;SHT30;46103;52.076;113.488;2023-06-01T04:32:17;19.66;32.47
60242;SHT30;46103;52.076;113.488;2023-06-01T04:35:39;19.39;32.59
60242;SHT30;46103;52.076;113.488;2023-06-01T04:38:44;19.10;33.04
60242;SHT30;46103;52.076;113.488;2023-06-01T04:41:47;18.84;33.38
60242;SHT30;46103;52.076;113.488;2023-06-01T04:44:54;18.91;33.49
60242;SHT30;46103;52.076;113.488;2023-06-01T04:47:59;19.00;33.10
60242;SHT30;46103;52.076;113.488;2023-06-01T04:51:18;19.32;33.12
60242;SHT30;46103;52.076;113.488;2023-06-01T04:54:23;19.67;32.61
60242;SHT30;46103;52.076;113.488;2023-06-01T04:57:28;19.90;31.99
60242;SHT30;46103;52.076;113.488;2023-06-01T05:00:37;19.93;33.07
60242;SHT30;46103;52.076;113.488;2023-06-01T05:03:54;19.73;36.57
60242;SHT30;46103;52.076;113.488;2023-06-01T05:07:01;19.55;37.78
60242;SHT30;46103;52.076;113.488;2023-06-01T05:10:06;19.32;38.35
60242;SHT30;46103;52.076;113.488;2023-06-01T05:13:17;19.42;38.00
60242;SHT30;46103;52.076;113.488;2023-06-01T05:16:22;19.54;37.62
60242;SHT30;46103;52.076;113.488;2023-06-01T05:19:27;19.56;37.04
60242;SHT30;46103;52.076;113.488;2023-06-01T05:22:33;19.61;37.17
60242;SHT30;46103;52.076;113.488;2023-06-01T05:26:13;19.67;36.41
60242;SHT30;46103;52.076;113.488;2023-06-01T05:30:01;19.97;36.36
60242;SHT30;46103;52.076;113.488;2023-06-01T05:34:23;20.58;35.63
60242;SHT30;46103;52.076;113.488;2023-06-01T05:43:22;21.62;33.61
60242;SHT30;46103;52.076;113.488;2023-06-01T05:47:27;21.93;33.39
60242;SHT30;46103;52.076;113.488;2023-06-01T05:50:33;21.92;33.23
60242;SHT30;46103;52.076;113.488;2023-06-01T05:54:16;22.39;32.93
60242;SHT30;46103;52.076;113.488;2023-06-01T05:58:39;22.95;32.16
60242;SHT30;46103;52.076;113.488;2023-06-01T06:03:13;22.94;31.92
60242;SHT30;46103;52.076;113.488;2023-06-01T06:10:59;22.96;31.88
60242;SHT30;46103;52.076;113.488;2023-06-01T06:14:20;23.01;31.50
60242;SHT30;46103;52.076;113.488;2023-06-01T06:17:44;23.53;30.27
60242;SHT30;46103;52.076;113.488;2023-06-01T06:20:53;23.39;30.32
60242;SHT30;46103;52.076;113.488;2023-06-01T06:24:14;23.15;29.63
60242;SHT30;46103;52.076;113.488;2023-06-01T06:27:34;23.29;28.77
60242;SHT30;46103;52.076;113.488;2023-06-01T06:30:54;23.47;29.10
60242;SHT30;46103;52.076;113.488;2023-06-01T06:34:34;23.63;28.93
60242;SHT30;46103;52.076;113.488;2023-06-01T06:37:54;24.29;28.39
60242;SHT30;46103;52.076;113.488;2023-06-01T06:41:14;24.97;27.36
60242;SHT30;46103;52.076;113.488;2023-06-01T06:44:20;24.74;27.49
60242;SHT30;46103;52.076;113.488;2023-06-01T06:48:43;25.28;27.11
60242;SHT30;46103;52.076;113.488;2023-06-01T06:52:29;26.01;26.09
60242;SHT30;46103;52.076;113.488;2023-06-01T06:56:07;26.66;25.97
60242;SHT30;46103;52.076;113.488;2023-06-01T06:59:49;27.21;25.53
60242;SHT30;46103;52.076;113.488;2023-06-01T07:03:42;27.96;24.90
60242;SHT30;46103;52.076;113.488;2023-06-01T07:06:58;27.59;25.11
60242;SHT30;46103;52.076;113.488;2023-06-01T07:10:22;27.96;24.76
60242;SHT30;46103;52.076;113.488;2023-06-01T07:14:18;27.99;24.65
60242;SHT30;46103;52.076;113.488;2023-06-01T07:17:49;27.97;23.78
60242;SHT30;46103;52.076;113.488;2023-06-01T07:21:15;27.78;24.31
60242;SHT30;46103;52.076;113.488;2023-06-01T07:24:36;27.79;25.12
60242;SHT30;46103;52.076;113.488;2023-06-01T07:27:59;26.41;26.03
60242;SHT30;46103;52.076;113.488;2023-06-01T07:31:34;26.18;26.77
60242;SHT30;46103;52.076;113.488;2023-06-01T07:35:17;24.33;29.17
60242;SHT30;46103;52.076;113.488;2023-06-01T07:38:38;24.11;29.55
60242;SHT30;46103;52.076;113.488;2023-06-01T07:41:47;24.55;29.08
60242;SHT30;46103;52.076;113.488;2023-06-01T07:45:04;25.52;27.61
60242;SHT30;46103;52.076;113.488;2023-06-01T07:48:31;26.96;26.38
60242;SHT30;46103;52.076;113.488;2023-06-01T07:51:49;26.92;25.78
60242;SHT30;46103;52.076;113.488;2023-06-01T07:55:01;26.13;26.21
60242;SHT30;46103;52.076;113.488;2023-06-01T07:58:34;25.38;27.48
60242;SHT30;46103;52.076;113.488;2023-06-01T08:01:55;25.14;27.80
60242;SHT30;46103;52.076;113.488;2023-06-01T08:05:03;24.78;28.55
60242;SHT30;46103;52.076;113.488;2023-06-01T08:08:14;24.48;29.74
60242;SHT30;46103;52.076;113.488;2023-06-01T08:11:41;25.03;29.00
60242;SHT30;46103;52.076;113.488;2023-06-01T08:14:59;25.41;28.83
60242;SHT30;46103;52.076;113.488;2023-06-01T08:18:17;25.34;28.31
60242;SHT30;46103;52.076;113.488;2023-06-01T08:21:46;25.26;28.41
60242;SHT30;46103;52.076;113.488;2023-06-01T08:25:12;25.63;27.16
60242;SHT30;46103;52.076;113.488;2023-06-01T08:28:46;25.87;27.34
60242;SHT30;46103;52.076;113.488;2023-06-01T08:32:05;24.73;28.50
60242;SHT30;46103;52.076;113.488;2023-06-01T08:35:15;24.60;28.53
60242;SHT30;46103;52.076;113.488;2023-06-01T08:38:37;24.70;28.28
60242;SHT30;46103;52.076;113.488;2023-06-01T08:45:24;25.29;27.17
60242;SHT30;46103;52.076;113.488;2023-06-01T08:49:09;26.51;26.15
60242;SHT30;46103;52.076;113.488;2023-06-01T08:53:36;27.72;24.99
60242;SHT30;46103;52.076;113.488;2023-06-01T08:57:06;28.89;23.83
60242;SHT30;46103;52.076;113.488;2023-06-01T09:01:20;29.50;23.09
60242;SHT30;46103;52.076;113.488;2023-06-01T09:04:43;30.53;22.05
60242;SHT30;46103;52.076;113.488;2023-06-01T09:08:09;30.30;22.06
60242;SHT30;46103;52.076;113.488;2023-06-01T09:11:40;28.61;23.61
60242;SHT30;46103;52.076;113.488;2023-06-01T09:20:11;28.05;24.14
60242;SHT30;46103;52.076;113.488;2023-06-01T09:34:35;23.81;29.15
60242;SHT30;46103;52.076;113.488;2023-06-01T09:38:29;22.58;35.68
60242;SHT30;46103;52.076;113.488;2023-06-01T09:42:16;21.47;37.64
60242;SHT30;46103;52.076;113.488;2023-06-01T09:45:30;21.75;36.30
60242;SHT30;46103;52.076;113.488;2023-06-01T09:50:36;23.19;34.24
60242;SHT30;46103;52.076;113.488;2023-06-01T09:53:58;23.19;33.87
60242;SHT30;46103;52.076;113.488;2023-06-01T09:57:34;22.58;35.17
60242;SHT30;46103;52.076;113.488;2023-06-01T10:01:07;22.67;35.16
60242;SHT30;46103;52.076;113.488;2023-06-01T10:05:04;22.08;35.97
60242;SHT30;46103;52.076;113.488;2023-06-01T10:09:04;21.47;37.39
60242;SHT30;46103;52.076;113.488;2023-06-01T10:12:25;21.75;37.13
60242;SHT30;46103;52.076;113.488;2023-06-01T10:15:36;22.51;36.00
60242;SHT30;46103;52.076;113.488;2023-06-01T10:18:59;22.50;35.72
60242;SHT30;46103;52.076;113.488;2023-06-01T10:22:25;22.63;35.65
60242;SHT30;46103;52.076;113.488;2023-06-01T10:26:17;22.23;36.33
60242;SHT30;46103;52.076;113.488;2023-06-01T10:30:16;22.32;36.50
60242;SHT30;46103;52.076;113.488;2023-06-01T10:33:53;21.74;37.46
60242;SHT30;46103;52.076;113.488;2023-06-01T10:41:33;22.02;37.37
60242;SHT30;46103;52.076;113.488;2023-06-01T10:44:57;23.88;34.26
60242;SHT30;46103;52.076;113.488;2023-06-01T10:48:56;24.97;32.63
60242;SHT30;46103;52.076;113.488;2023-06-01T10:52:49;25.79;31.45
60242;SHT30;46103;52.076;113.488;2023-06-01T10:56:37;25.77;31.72
60242;SHT30;46103;52.076;113.488;2023-06-01T11:00:25;27.85;28.90
60242;SHT30;46103;52.076;113.488;2023-06-01T11:04:08;28.23;28.04
60242;SHT30;46103;52.076;113.488;2023-06-01T11:16:40;21.31;37.01
60242;SHT30;46103;52.076;113.488;2023-06-01T11:19:28;20.17;38.61
60242;SHT30;46103;52.076;113.488;2023-06-01T11:23:02;19.61;39.27
60242;SHT30;46103;52.076;113.488;2023-06-01T11:26:47;19.11;40.71
60242;SHT30;46103;52.076;113.488;2023-06-01T11:30:10;18.52;42.22
60242;SHT30;46103;52.076;113.488;2023-06-01T11:33:47;18.26;42.81
60242;SHT30;46103;52.076;113.488;2023-06-01T11:37:17;18.16;43.55
60242;SHT30;46103;52.076;113.488;2023-06-01T11:40:58;17.70;45.31
60242;SHT30;46103;52.076;113.488;2023-06-01T11:44:17;17.39;46.21
60242;SHT30;46103;52.076;113.488;2023-06-01T11:47:42;17.53;46.13
60242;SHT30;46103;52.076;113.488;2023-06-01T11:50:48;17.57;45.66
60242;SHT30;46103;52.076;113.488;2023-06-01T11:53:52;17.43;45.91
60242;SHT30;46103;52.076;113.488;2023-06-01T11:57:12;17.18;46.41
60242;SHT30;46103;52.076;113.488;2023-06-01T12:00:18;17.02;46.71
60242;SHT30;46103;52.076;113.488;2023-06-01T12:03:48;16.95;46.89
60242;SHT30;46103;52.076;113.488;2023-06-01T12:07:09;16.88;46.97
60242;SHT30;46103;52.076;113.488;2023-06-01T12:10:30;16.84;47.48
60242;SHT30;46103;52.076;113.488;2023-06-01T12:13:36;16.83;47.16
60242;SHT30;46103;52.076;113.488;2023-06-01T12:17:17;16.67;47.70
60242;SHT30;46103;52.076;113.488;2023-06-01T12:20:44;16.59;47.81
60242;SHT30;46103;52.076;113.488;2023-06-01T12:24:28;16.43;48.37
60242;SHT30;46103;52.076;113.488;2023-06-01T12:28:05;16.34;48.69
60242;SHT30;46103;52.076;113.488;2023-06-01T12:31:16;16.19;48.96
60242;SHT30;46103;52.076;113.488;2023-06-01T12:34:34;16.08;49.39
60242;SHT30;46103;52.076;113.488;2023-06-01T12:38:22;15.99;49.53
60242;SHT30;46103;52.076;113.488;2023-06-01T12:41:27;15.81;50.20
60242;SHT30;46103;52.076;113.488;2023-06-01T12:45:02;15.61;50.81
60242;SHT30;46103;52.076;113.488;2023-06-01T12:48:36;15.49;51.14
60242;SHT30;46103;52.076;113.488;2023-06-01T12:52:28;15.40;51.18
60242;SHT30;46103;52.076;113.488;2023-06-01T12:55:37;15.16;51.88
60242;SHT30;46103;52.076;113.488;2023-06-01T12:58:58;15.02;51.80
60242;SHT30;46103;52.076;113.488;2023-06-01T13:03:03;14.93;52.46
60242;SHT30;46103;52.076;113.488;2023-06-01T13:07:28;14.84;52.97
60242;SHT30;46103;52.076;113.488;2023-06-01T13:11:00;14.87;52.87
60242;SHT30;46103;52.076;113.488;2023-06-01T13:19:55;14.51;54.33
60242;SHT30;46103;52.076;113.488;2023-06-01T13:27:44;14.38;55.45
60242;SHT30;46103;52.076;113.488;2023-06-01T13:30:51;14.36;55.70
60242;SHT30;46103;52.076;113.488;2023-06-01T13:34:44;14.36;56.03
60242;SHT30;46103;52.076;113.488;2023-06-01T13:39:41;14.37;56.17
60242;SHT30;46103;52.076;113.488;2023-06-01T13:44:07;14.40;56.17
60242;SHT30;46103;52.076;113.488;2023-06-01T13:47:12;14.48;55.93
60242;SHT30;46103;52.076;113.488;2023-06-01T13:50:19;14.51;55.48
60242;SHT30;46103;52.076;113.488;2023-06-01T13:53:23;14.48;55.67
60242;SHT30;46103;52.076;113.488;2023-06-01T13:56:40;14.54;55.23
60242;SHT30;46103;52.076;113.488;2023-06-01T14:05:04;14.41;54.73
60242;SHT30;46103;52.076;113.488;2023-06-01T14:09:56;14.42;54.41
60242;SHT30;46103;52.076;113.488;2023-06-01T14:13:57;14.47;54.66
60242;SHT30;46103;52.076;113.488;2023-06-01T14:30:44;13.65;58.31
60242;SHT30;46103;52.076;113.488;2023-06-01T14:34:33;13.51;59.41
60242;SHT30;46103;52.076;113.488;2023-06-01T14:38:12;13.31;59.75
60242;SHT30;46103;52.076;113.488;2023-06-01T14:41:18;13.31;60.17
60242;SHT30;46103;52.076;113.488;2023-06-01T14:44:24;13.34;60.50
60242;SHT30;46103;52.076;113.488;2023-06-01T14:47:29;13.23;61.38
60242;SHT30;46103;52.076;113.488;2023-06-01T14:50:36;13.16;61.89
60242;SHT30;46103;52.076;113.488;2023-06-01T14:53:44;13.06;61.69
60242;SHT30;46103;52.076;113.488;2023-06-01T14:57:01;13.02;61.75
60242;SHT30;46103;52.076;113.488;2023-06-01T15:01:14;13.00;62.35
60242;SHT30;46103;52.076;113.488;2023-06-01T15:05:39;12.89;62.33
60242;SHT30;46103;52.076;113.488;2023-06-01T15:08:45;12.81;64.88
60242;SHT30;46103;52.076;113.488;2023-06-01T15:12:18;12.71;61.94
60242;SHT30;46103;52.076;113.488;2023-06-01T15:15:27;12.62;64.10
60242;SHT30;46103;52.076;113.488;2023-06-01T15:18:59;12.61;60.66
60242;SHT30;46103;52.076;113.488;2023-06-01T15:22:52;12.54;61.40
60242;SHT30;46103;52.076;113.488;2023-06-01T15:27:34;12.49;61.21
60242;SHT30;46103;52.076;113.488;2023-06-01T15:31:33;12.41;62.91
60242;SHT30;46103;52.076;113.488;2023-06-01T15:35:16;12.40;60.84
60242;SHT30;46103;52.076;113.488;2023-06-01T15:43:17;12.25;61.29
60242;SHT30;46103;52.076;113.488;2023-06-01T15:46:47;12.30;62.06
60242;SHT30;46103;52.076;113.488;2023-06-01T15:50:34;12.31;62.74
60242;SHT30;46103;52.076;113.488;2023-06-01T15:54:55;12.21;61.93
60242;SHT30;46103;52.076;113.488;2023-06-01T16:12:58;11.75;64.68
60242;SHT30;46103;52.076;113.488;2023-06-01T16:16:16;11.66;65.47
60242;SHT30;46103;52.076;113.488;2023-06-01T16:19:43;11.63;65.77
60242;SHT30;46103;52.076;113.488;2023-06-01T16:22:51;11.61;65.91
60242;SHT30;46103;52.076;113.488;2023-06-01T16:26:04;11.52;65.64
60242;SHT30;46103;52.076;113.488;2023-06-01T16:29:12;11.45;66.09
60242;SHT30;46103;52.076;113.488;2023-06-01T16:32:18;11.35;66.63
60242;SHT30;46103;52.076;113.488;2023-06-01T16:35:25;11.32;66.77
60242;SHT30;46103;52.076;113.488;2023-06-01T16:38:36;11.27;66.69
60242;SHT30;46103;52.076;113.488;2023-06-01T16:42:03;11.27;67.12
60242;SHT30;46103;52.076;113.488;2023-06-01T16:45:10;11.25;67.58
60242;SHT30;46103;52.076;113.488;2023-06-01T16:48:29;11.22;67.43
60242;SHT30;46103;52.076;113.488;2023-06-01T16:51:49;11.22;66.64
60242;SHT30;46103;52.076;113.488;2023-06-01T16:54:56;11.20;67.11
60242;SHT30;46103;52.076;113.488;2023-06-01T16:58:05;11.24;67.03
60242;SHT30;46103;52.076;113.488;2023-06-01T17:01:26;11.17;67.22
60242;SHT30;46103;52.076;113.488;2023-06-01T17:04:32;11.07;68.06
60242;SHT30;46103;52.076;113.488;2023-06-01T17:07:53;11.03;68.19
60242;SHT30;46103;52.076;113.488;2023-06-01T17:10:59;10.97;69.26
60242;SHT30;46103;52.076;113.488;2023-06-01T17:14:08;10.90;69.04
60242;SHT30;46103;52.076;113.488;2023-06-01T17:17:31;10.87;70.25
60242;SHT30;46103;52.076;113.488;2023-06-01T17:20:43;10.77;70.67
60242;SHT30;46103;52.076;113.488;2023-06-01T17:23:48;10.77;70.28
60242;SHT30;46103;52.076;113.488;2023-06-01T17:26:57;10.75;70.47
60242;SHT30;46103;52.076;113.488;2023-06-01T17:30:03;10.80;70.22
60242;SHT30;46103;52.076;113.488;2023-06-01T17:33:12;10.77;70.13
60242;SHT30;46103;52.076;113.488;2023-06-01T17:36:18;10.67;71.17
60242;SHT30;46103;52.076;113.488;2023-06-01T17:39:23;10.55;71.84
60242;SHT30;46103;52.076;113.488;2023-06-01T17:42:28;10.46;72.46
60242;SHT30;46103;52.076;113.488;2023-06-01T17:45:34;10.37;72.88
60242;SHT30;46103;52.076;113.488;2023-06-01T17:48:39;10.29;73.11
60242;SHT30;46103;52.076;113.488;2023-06-01T17:51:59;10.31;73.46
60242;SHT30;46103;52.076;113.488;2023-06-01T17:55:08;10.19;74.01
60242;SHT30;46103;52.076;113.488;2023-06-01T17:58:27;10.29;73.76
60242;SHT30;46103;52.076;113.488;2023-06-01T18:01:36;10.24;74.20
60242;SHT30;46103;52.076;113.488;2023-06-01T18:04:43;10.19;74.78
60242;SHT30;46103;52.076;113.488;2023-06-01T18:08:10;10.05;75.81
60242;SHT30;46103;52.076;113.488;2023-06-01T18:11:21;10.02;76.09
60242;SHT30;46103;52.076;113.488;2023-06-01T18:14:29;10.00;76.28
60242;SHT30;46103;52.076;113.488;2023-06-01T18:17:35;9.98;76.05
60242;SHT30;46103;52.076;113.488;2023-06-01T18:20:54;9.95;76.59
60242;SHT30;46103;52.076;113.488;2023-06-01T18:24:16;9.95;76.56
60242;SHT30;46103;52.076;113.488;2023-06-01T18:27:23;9.95;75.96
60242;SHT30;46103;52.076;113.488;2023-06-01T18:30:42;9.93;75.57
60242;SHT30;46103;52.076;113.488;2023-06-01T18:33:47;9.89;74.66
60242;SHT30;46103;52.076;113.488;2023-06-01T18:37:08;9.86;75.05
60242;SHT30;46103;52.076;113.488;2023-06-01T18:40:14;9.72;74.95
60242;SHT30;46103;52.076;113.488;2023-06-01T18:43:24;9.63;75.31
60242;SHT30;46103;52.076;113.488;2023-06-01T18:46:29;9.57;76.13
60242;SHT30;46103;52.076;113.488;2023-06-01T18:49:48;9.49;75.66
60242;SHT30;46103;52.076;113.488;2023-06-01T18:52:54;9.43;76.49
60242;SHT30;46103;52.076;113.488;2023-06-01T18:56:20;9.39;77.20
60242;SHT30;46103;52.076;113.488;2023-06-01T18:59:31;9.32;77.27
60242;SHT30;46103;52.076;113.488;2023-06-01T19:02:56;9.32;77.12
60242;SHT30;46103;52.076;113.488;2023-06-01T19:06:14;9.21;76.48
60242;SHT30;46103;52.076;113.488;2023-06-01T19:09:38;9.12;75.56
60242;SHT30;46103;52.076;113.488;2023-06-01T19:12:50;9.08;77.44
60242;SHT30;46103;52.076;113.488;2023-06-01T19:16:00;9.03;77.54
60242;SHT30;46103;52.076;113.488;2023-06-01T19:19:09;9.00;77.25
60242;SHT30;46103;52.076;113.488;2023-06-01T19:22:16;8.97;77.54
60242;SHT30;46103;52.076;113.488;2023-06-01T19:25:22;9.00;77.78
60242;SHT30;46103;52.076;113.488;2023-06-01T19:28:29;8.96;77.84
60242;SHT30;46103;52.076;113.488;2023-06-01T19:31:40;8.87;77.77
60242;SHT30;46103;52.076;113.488;2023-06-01T19:35:01;8.83;77.82
60242;SHT30;46103;52.076;113.488;2023-06-01T19:38:23;8.77;77.38
60242;SHT30;46103;52.076;113.488;2023-06-01T19:41:30;8.69;75.93
60242;SHT30;46103;52.076;113.488;2023-06-01T19:44:37;8.57;74.87
60242;SHT30;46103;52.076;113.488;2023-06-01T19:47:48;8.46;74.64
60242;SHT30;46103;52.076;113.488;2023-06-01T19:50:57;8.40;75.09
60242;SHT30;46103;52.076;113.488;2023-06-01T19:54:02;8.36;75.39
60242;SHT30;46103;52.076;113.488;2023-06-01T19:57:21;8.32;74.30
60242;SHT30;46103;52.076;113.488;2023-06-01T20:00:29;8.26;73.90
60242;SHT30;46103;52.076;113.488;2023-06-01T20:03:51;8.22;74.44
60242;SHT30;46103;52.076;113.488;2023-06-01T20:06:57;8.18;75.05
60242;SHT30;46103;52.076;113.488;2023-06-01T20:10:22;8.19;73.84
60242;SHT30;46103;52.076;113.488;2023-06-01T20:13:32;8.11;73.43
60242;SHT30;46103;52.076;113.488;2023-06-01T20:16:57;8.15;76.42
60242;SHT30;46103;52.076;113.488;2023-06-01T20:20:07;8.13;74.82
60242;SHT30;46103;52.076;113.488;2023-06-01T20:23:30;8.21;77.50
60242;SHT30;46103;52.076;113.488;2023-06-01T20:27:04;8.25;77.27
60242;SHT30;46103;52.076;113.488;2023-06-01T20:30:41;8.28;76.68
60242;SHT30;46103;52.076;113.488;2023-06-01T20:33:54;8.35;76.88
60242;SHT30;46103;52.076;113.488;2023-06-01T20:37:15;8.39;74.60
60242;SHT30;46103;52.076;113.488;2023-06-01T20:44:00;8.59;73.77
60242;SHT30;46103;52.076;113.488;2023-06-01T20:47:06;8.61;72.16
60242;SHT30;46103;52.076;113.488;2023-06-01T20:50:18;8.74;71.35
60242;SHT30;46103;52.076;113.488;2023-06-01T20:53:26;8.78;70.13
60242;SHT30;46103;52.076;113.488;2023-06-01T20:56:48;8.87;69.54
60242;SHT30;46103;52.076;113.488;2023-06-01T20:59:55;8.89;69.42
60242;SHT30;46103;52.076;113.488;2023-06-01T21:03:05;8.87;69.78
60242;SHT30;46103;52.076;113.488;2023-06-01T21:06:10;8.83;69.11
60242;SHT30;46103;52.076;113.488;2023-06-01T21:09:20;8.85;68.95
60242;SHT30;46103;52.076;113.488;2023-06-01T21:12:39;8.88;69.26
60242;SHT30;46103;52.076;113.488;2023-06-01T21:15:48;8.91;68.81
60242;SHT30;46103;52.076;113.488;2023-06-01T21:18:53;8.94;67.98
60242;SHT30;46103;52.076;113.488;2023-06-01T21:22:00;9.05;67.43
60242;SHT30;46103;52.076;113.488;2023-06-01T21:25:06;9.10;67.28
60242;SHT30;46103;52.076;113.488;2023-06-01T21:28:13;9.15;67.31
60242;SHT30;46103;52.076;113.488;2023-06-01T21:31:18;9.21;67.26
60242;SHT30;46103;52.076;113.488;2023-06-01T21:34:36;9.25;67.43
60242;SHT30;46103;52.076;113.488;2023-06-01T21:37:42;9.34;67.28
60242;SHT30;46103;52.076;113.488;2023-06-01T21:40:49;9.36;67.27
60242;SHT30;46103;52.076;113.488;2023-06-01T21:44:02;9.46;66.99
60242;SHT30;46103;52.076;113.488;2023-06-01T21:47:09;9.49;66.58
60242;SHT30;46103;52.076;113.488;2023-06-01T21:50:38;9.54;66.30
60242;SHT30;46103;52.076;113.488;2023-06-01T21:53:44;9.60;66.53
60242;SHT30;46103;52.076;113.488;2023-06-01T21:56:50;9.73;65.96
60242;SHT30;46103;52.076;113.488;2023-06-01T21:59:57;9.81;65.89
60242;SHT30;46103;52.076;113.488;2023-06-01T22:03:15;9.97;66.64
60242;SHT30;46103;52.076;113.488;2023-06-01T22:06:31;10.08;66.88
60242;SHT30;46103;52.076;113.488;2023-06-01T22:09:40;10.14;66.92
60242;SHT30;46103;52.076;113.488;2023-06-01T22:12:47;10.22;66.68
60242;SHT30;46103;52.076;113.488;2023-06-01T22:15:53;10.32;66.91
60242;SHT30;46103;52.076;113.488;2023-06-01T22:18:59;10.46;66.10
60242;SHT30;46103;52.076;113.488;2023-06-01T22:22:20;10.56;65.66
60242;SHT30;46103;52.076;113.488;2023-06-01T22:25:26;10.57;65.22
60242;SHT30;46103;52.076;113.488;2023-06-01T22:28:35;10.53;65.21
60242;SHT30;46103;52.076;113.488;2023-06-01T22:31:44;10.56;64.68
60242;SHT30;46103;52.076;113.488;2023-06-01T22:35:05;10.39;64.86
60242;SHT30;46103;52.076;113.488;2023-06-01T22:38:10;10.31;64.84